createdAt,value
2019-02-22T00:22:42.691Z,176.83
2019-02-22T00:23:49.848Z,174.33
2019-02-22T00:24:57.269Z,183.77
2019-02-22T00:26:04.327Z,167.40
2019-02-22T00:27:11.003Z,166.70
2019-02-22T00:28:18.414Z,168.90
2019-02-22T00:29:25.093Z,180.77
2019-02-22T00:30:32.072Z,199.20
2019-02-22T00:31:39.107Z,181.30
2019-02-22T00:32:46.186Z,161.63
2019-02-22T00:33:52.898Z,184.90
2019-02-22T00:34:59.581Z,182.30
2019-02-22T00:36:06.340Z,185.90
2019-02-22T00:37:14.045Z,194.67
2019-02-22T00:38:21.145Z,199.07
2019-02-22T00:39:28.268Z,192.33
2019-02-22T00:40:34.948Z,194.60
2019-02-22T00:41:41.650Z,178.23
2019-02-22T00:42:50.237Z,176.90
2019-02-22T00:43:57.784Z,187.13
2019-02-22T00:45:04.795Z,181.50
2019-02-22T00:46:11.512Z,186.90
2019-02-22T00:47:18.194Z,173.30
2019-02-22T00:48:25.319Z,172.30
2019-02-22T00:49:32.037Z,193.40
2019-02-22T00:50:38.688Z,192.57
2019-02-22T00:51:46.201Z,175.10
2019-02-22T00:52:52.894Z,205.10
2019-02-22T00:53:59.634Z,199.23
2019-02-22T00:55:06.731Z,177.50
2019-02-22T00:56:13.453Z,171.50
2019-02-22T00:57:20.691Z,186.43
2019-02-22T00:58:27.364Z,197.37
2019-02-22T00:59:34.767Z,203.93
2019-02-22T01:00:41.847Z,208.20
2019-02-22T01:01:49.081Z,199.00
2019-02-22T01:02:56.113Z,195.23
2019-02-22T01:04:02.993Z,229.97
2019-02-22T01:05:09.757Z,202.53
2019-02-22T01:06:16.448Z,190.10
2019-02-22T01:07:23.526Z,168.90
2019-02-22T01:08:30.527Z,211.73
2019-02-22T01:09:37.309Z,182.50
2019-02-22T01:10:44.001Z,175.30
2019-02-22T01:11:50.666Z,168.57
2019-02-22T01:12:57.758Z,156.17
2019-02-22T01:14:04.775Z,176.93
2019-02-22T01:15:11.631Z,165.37
2019-02-22T01:16:19.067Z,158.73
2019-02-22T01:17:25.747Z,168.30
2019-02-22T01:18:32.715Z,163.97
2019-02-22T01:19:39.437Z,158.77
2019-02-22T01:20:53.913Z,165.97
2019-02-22T01:21:54.497Z,179.33
2019-02-22T01:23:01.771Z,157.17
2019-02-22T01:24:08.798Z,164.73
2019-02-22T01:25:15.778Z,156.00
2019-02-22T01:26:23.480Z,154.17
2019-02-22T01:27:30.212Z,157.50
2019-02-22T01:28:37.231Z,169.07
2019-02-22T01:29:43.921Z,158.70
2019-02-22T01:30:50.636Z,146.67
2019-02-22T01:31:57.308Z,152.30
2019-02-22T01:33:04.062Z,163.37
2019-02-22T01:34:10.745Z,144.53
2019-02-22T01:35:17.436Z,140.80
2019-02-22T01:36:24.111Z,164.00
2019-02-22T01:37:31.159Z,145.63
2019-02-22T01:38:37.895Z,171.97
2019-02-22T01:39:44.575Z,152.47
2019-02-22T01:40:52.038Z,144.57
2019-02-22T01:41:59.421Z,140.60
2019-02-22T01:43:06.138Z,139.80
2019-02-22T01:44:23.797Z,143.53
2019-02-22T01:45:30.481Z,146.17
2019-02-22T01:46:37.568Z,152.80
2019-02-22T01:47:44.240Z,149.93
2019-02-22T01:48:51.426Z,149.53
2019-02-22T01:49:58.175Z,146.20
2019-02-22T01:51:04.886Z,124.20
2019-02-22T01:52:12.226Z,122.50
2019-02-22T01:53:19.057Z,153.33
2019-02-22T01:54:25.743Z,142.43
2019-02-22T01:55:32.723Z,140.77
2019-02-22T01:56:39.772Z,145.53
2019-02-22T01:57:46.786Z,152.40
2019-02-22T01:58:54.797Z,125.50
2019-02-22T02:00:01.878Z,143.60
2019-02-22T02:01:08.639Z,132.73
2019-02-22T02:02:16.109Z,147.13
2019-02-22T02:03:22.850Z,142.27
2019-02-22T02:04:30.187Z,145.83
2019-02-22T02:05:36.836Z,147.03
2019-02-22T02:06:43.813Z,148.93
2019-02-22T02:07:50.514Z,140.13
2019-02-22T02:08:57.198Z,148.87
2019-02-22T02:10:04.822Z,133.60
2019-02-22T02:11:11.535Z,149.33
2019-02-22T02:12:18.392Z,144.90
2019-02-22T02:13:25.364Z,153.63
2019-02-22T02:14:32.070Z,134.03
2019-02-22T02:15:38.750Z,139.90
2019-02-22T02:16:45.768Z,129.00
2019-02-22T02:17:52.465Z,147.73
2019-02-22T02:18:59.144Z,144.97
2019-02-22T02:20:06.359Z,139.27
2019-02-22T02:21:13.066Z,144.23
2019-02-22T02:22:20.075Z,145.33
2019-02-22T02:23:26.769Z,140.73
2019-02-22T02:24:34.091Z,161.10
2019-02-22T02:25:41.478Z,154.30
2019-02-22T02:26:48.267Z,153.40
2019-02-22T02:27:54.948Z,145.33
2019-02-22T02:29:01.999Z,145.73
2019-02-22T02:30:09.742Z,140.20
2019-02-22T02:31:16.488Z,138.33
2019-02-22T02:32:23.654Z,132.63
2019-02-22T02:33:30.789Z,120.63
2019-02-22T02:34:39.673Z,130.37
2019-02-22T02:35:46.648Z,142.40
2019-02-22T02:36:53.694Z,142.13
2019-02-22T02:38:00.403Z,134.40
2019-02-22T02:39:08.853Z,141.67
2019-02-22T02:40:15.526Z,124.33
2019-02-22T02:41:22.287Z,141.87
2019-02-22T02:42:28.970Z,147.23
2019-02-22T02:43:35.655Z,117.93
2019-02-22T02:44:42.701Z,118.90
2019-02-22T02:45:49.408Z,119.13
2019-02-22T02:46:56.184Z,121.73
2019-02-22T02:48:03.426Z,123.70
2019-02-22T02:49:10.120Z,120.23
2019-02-22T02:50:18.859Z,116.90
2019-02-22T02:51:25.543Z,118.10
2019-02-22T02:52:32.254Z,103.23
2019-02-22T02:53:38.917Z,115.70
2019-02-22T02:54:45.655Z,119.37
2019-02-22T02:55:52.317Z,100.70
2019-02-22T02:56:59.010Z,98.33
2019-02-22T02:58:06.353Z,95.53
2019-02-22T02:59:13.032Z,97.83
2019-02-22T03:00:19.753Z,110.60
2019-02-22T03:01:26.754Z,121.07
2019-02-22T03:02:33.448Z,115.73
2019-02-22T03:03:40.252Z,115.63
2019-02-22T03:04:46.959Z,125.07
2019-02-22T03:06:11.447Z,106.07
2019-02-22T03:07:40.445Z,113.90
2019-02-22T03:08:47.505Z,115.83
2019-02-22T03:09:54.889Z,112.63
2019-02-22T03:11:01.961Z,97.77
2019-02-22T03:12:08.997Z,102.50
2019-02-22T03:13:15.914Z,103.57
2019-02-22T03:14:22.723Z,107.57
2019-02-22T03:15:29.881Z,118.43
2019-02-22T03:16:36.869Z,122.23
2019-02-22T03:17:43.645Z,105.70
2019-02-22T03:18:50.338Z,104.43
2019-02-22T03:19:57.149Z,108.40
2019-02-22T03:21:03.950Z,108.53
2019-02-22T03:22:10.719Z,111.33
2019-02-22T03:23:17.790Z,118.70
2019-02-22T03:24:24.987Z,106.33
2019-02-22T03:25:31.674Z,120.77
2019-02-22T03:26:38.352Z,107.13
2019-02-22T03:27:45.168Z,100.63
2019-02-22T03:28:52.370Z,108.83
2019-02-22T03:29:59.139Z,127.20
2019-02-22T03:31:06.148Z,131.17
2019-02-22T03:32:12.912Z,120.13
2019-02-22T03:33:20.699Z,112.27
2019-02-22T03:34:27.526Z,139.00
2019-02-22T03:35:34.500Z,111.37
2019-02-22T03:36:41.168Z,117.63
2019-02-22T03:37:47.953Z,125.17
2019-02-22T03:38:55.039Z,104.83
2019-02-22T03:40:01.808Z,118.70
2019-02-22T03:41:08.835Z,129.50
2019-02-22T03:42:15.886Z,116.60
2019-02-22T03:43:22.563Z,120.77
2019-02-22T03:44:29.467Z,133.03
2019-02-22T03:45:36.161Z,130.53
2019-02-22T03:46:42.860Z,114.60
2019-02-22T03:47:49.528Z,136.67
2019-02-22T03:48:56.266Z,126.83
2019-02-22T03:50:03.021Z,122.27
2019-02-22T03:51:09.726Z,129.10
2019-02-22T03:52:41.606Z,122.73
2019-02-22T03:53:57.432Z,142.87
2019-02-22T03:55:03.460Z,129.97
2019-02-22T03:56:10.497Z,127.37
2019-02-22T03:57:17.874Z,126.80
2019-02-22T03:58:24.607Z,114.67
2019-02-22T03:59:31.302Z,120.23
2019-02-22T04:00:37.979Z,120.40
2019-02-22T04:01:44.691Z,119.53
2019-02-22T04:02:52.209Z,117.37
2019-02-22T04:03:59.103Z,107.53
2019-02-22T04:05:06.624Z,110.60
2019-02-22T04:06:13.300Z,118.63
2019-02-22T04:07:20.435Z,135.10
2019-02-22T04:08:27.141Z,112.00
2019-02-22T04:19:20.873Z,116.17
2019-02-22T04:20:27.895Z,117.57
2019-02-22T04:21:34.569Z,124.20
2019-02-22T04:22:44.284Z,109.53
2019-02-22T04:23:50.142Z,119.10
2019-02-22T04:24:57.172Z,127.23
2019-02-22T04:26:03.888Z,111.90
2019-02-22T04:27:10.551Z,107.67
2019-02-22T04:28:17.266Z,120.67
2019-02-22T04:29:24.001Z,108.43
2019-02-22T04:30:30.681Z,126.23
2019-02-22T04:31:37.358Z,126.07
2019-02-22T04:32:44.077Z,117.40
2019-02-22T04:33:51.099Z,119.00
2019-02-22T04:34:57.801Z,113.17
2019-02-22T04:36:04.497Z,103.33
2019-02-22T04:37:11.191Z,105.73
2019-02-22T04:38:17.870Z,106.67
2019-02-22T04:39:25.034Z,100.10
2019-02-22T04:40:31.716Z,98.73
2019-02-22T04:41:38.499Z,111.10
2019-02-22T04:42:45.199Z,101.80
2019-02-22T04:43:51.934Z,111.40
2019-02-22T04:44:59.071Z,118.93
2019-02-22T04:46:05.827Z,108.70
2019-02-22T04:47:12.517Z,105.67
2019-02-22T04:48:19.199Z,122.63
2019-02-22T04:49:26.121Z,128.20
2019-02-22T04:50:33.063Z,148.30
2019-02-22T04:51:40.008Z,122.60
2019-02-22T04:52:46.725Z,119.87
2019-02-22T04:53:53.450Z,120.37
2019-02-22T04:55:00.456Z,110.33
2019-02-22T04:56:07.189Z,110.90
2019-02-22T04:57:13.884Z,119.13
2019-02-22T04:58:20.615Z,126.97
2019-02-22T04:59:27.641Z,116.00
2019-02-22T05:00:34.374Z,126.93
2019-02-22T05:01:41.103Z,127.93
2019-02-22T05:02:47.971Z,129.10
2019-02-22T05:03:54.668Z,116.33
2019-02-22T05:05:02.245Z,125.90
2019-02-22T05:06:09.322Z,130.73
2019-02-22T05:07:15.999Z,116.43
2019-02-22T05:08:23.070Z,128.03
2019-02-22T05:09:30.126Z,130.73
2019-02-22T05:10:36.923Z,123.73
2019-02-22T05:11:43.995Z,107.47
2019-02-22T05:12:51.229Z,122.67
2019-02-22T05:13:58.741Z,115.10
2019-02-22T05:15:12.602Z,119.73
2019-02-22T05:16:14.877Z,129.70
2019-02-22T05:17:21.596Z,126.07
2019-02-22T05:18:28.317Z,121.10
2019-02-22T05:19:35.012Z,116.40
2019-02-22T05:20:42.044Z,122.87
2019-02-22T05:21:49.431Z,122.77
2019-02-22T05:23:03.745Z,107.30
2019-02-22T05:24:04.596Z,101.70
2019-02-22T05:25:11.297Z,134.13
2019-02-22T05:26:18.335Z,132.33
2019-02-22T05:27:25.824Z,121.07
2019-02-22T05:28:32.481Z,113.27
2019-02-22T05:29:39.165Z,125.33
2019-02-22T05:30:45.850Z,133.70
2019-02-22T05:31:52.548Z,136.40
2019-02-22T05:32:59.239Z,139.67
2019-02-22T05:34:06.295Z,128.60
2019-02-22T05:35:13.229Z,133.70
2019-02-22T05:36:19.899Z,128.00
2019-02-22T05:37:26.653Z,114.73
2019-02-22T05:38:33.344Z,118.80
2019-02-22T05:39:40.373Z,143.17
2019-02-22T05:40:47.599Z,120.50
2019-02-22T05:41:54.301Z,115.90
2019-02-22T05:43:01.052Z,121.13
2019-02-22T05:44:08.170Z,121.10
2019-02-22T05:45:15.290Z,122.33
2019-02-22T05:46:22.301Z,130.23
2019-02-22T05:47:29.381Z,132.90
2019-02-22T05:48:38.736Z,127.00
2019-02-22T05:49:44.489Z,142.73
2019-02-22T05:50:51.170Z,130.07
2019-02-22T05:51:57.865Z,119.83
2019-02-22T05:53:04.528Z,127.00
2019-02-22T05:54:11.259Z,121.93
2019-02-22T05:55:18.255Z,127.50
2019-02-22T05:56:25.782Z,122.60
2019-02-22T05:57:32.728Z,121.67
2019-02-22T05:58:39.405Z,124.40
2019-02-22T05:59:46.141Z,128.57
2019-02-22T06:00:53.708Z,136.87
2019-02-22T06:02:01.041Z,120.63
2019-02-22T06:03:08.555Z,122.07
2019-02-22T06:04:15.214Z,131.40
2019-02-22T06:05:22.145Z,118.67
2019-02-22T06:06:29.339Z,117.00
2019-02-22T06:07:36.413Z,123.97
2019-02-22T06:08:43.143Z,131.83
2019-02-22T06:09:49.798Z,122.70
2019-02-22T06:10:56.521Z,129.97
2019-02-22T06:12:03.205Z,122.73
2019-02-22T06:13:10.034Z,124.00
2019-02-22T06:14:16.737Z,126.33
2019-02-22T06:15:23.469Z,126.30
2019-02-22T06:16:31.011Z,114.10
2019-02-22T06:17:37.751Z,124.70
2019-02-22T06:18:44.401Z,112.20
2019-02-22T06:19:51.152Z,114.73
2019-02-22T06:20:57.887Z,121.50
2019-02-22T06:22:05.488Z,121.33
2019-02-22T06:23:12.421Z,122.07
2019-02-22T06:24:19.477Z,127.27
2019-02-22T06:25:26.860Z,142.60
2019-02-22T06:26:33.540Z,113.80
2019-02-22T06:27:40.238Z,132.73
2019-02-22T06:28:47.065Z,110.63
2019-02-22T06:29:54.113Z,119.03
2019-02-22T06:31:00.793Z,118.60
2019-02-22T06:32:07.487Z,127.70
2019-02-22T06:33:14.264Z,123.83
2019-02-22T06:34:21.018Z,118.97
2019-02-22T06:35:28.879Z,119.97
2019-02-22T06:36:35.956Z,127.17
2019-02-22T06:37:42.938Z,112.87
2019-02-22T06:38:49.892Z,107.83
2019-02-22T06:39:56.609Z,123.80
2019-02-22T06:41:03.301Z,120.40
2019-02-22T06:42:10.032Z,126.57
2019-02-22T06:43:17.103Z,125.93
2019-02-22T06:44:23.889Z,120.67
2019-02-22T06:45:30.968Z,121.80
2019-02-22T06:46:38.010Z,131.10
2019-02-22T06:47:44.687Z,126.43
2019-02-22T06:48:51.490Z,131.13
2019-02-22T06:49:58.592Z,129.00
2019-02-22T06:51:05.251Z,123.40
2019-02-22T06:52:11.927Z,121.23
2019-02-22T06:53:18.602Z,115.23
2019-02-22T06:54:25.295Z,117.87
2019-02-22T06:55:32.166Z,128.13
2019-02-22T06:56:38.848Z,141.40
2019-02-22T06:57:45.985Z,118.13
2019-02-22T06:58:52.756Z,123.90
2019-02-22T06:59:59.765Z,116.70
2019-02-22T07:01:06.451Z,118.80
2019-02-22T07:02:13.445Z,109.67
2019-02-22T07:03:20.842Z,118.30
2019-02-22T07:04:27.929Z,130.10
2019-02-22T07:05:34.579Z,143.00
2019-02-22T07:06:41.382Z,147.33
2019-02-22T07:07:48.468Z,132.60
2019-02-22T07:08:55.162Z,117.80
2019-02-22T07:10:02.231Z,137.17
2019-02-22T07:11:37.914Z,146.77
2019-02-22T07:13:03.659Z,123.50
2019-02-22T07:14:10.759Z,122.97
2019-02-22T07:15:17.451Z,135.27
2019-02-22T07:16:24.680Z,140.07
2019-02-22T07:17:31.347Z,136.03
2019-02-22T07:18:38.617Z,151.03
2019-02-22T07:19:46.046Z,138.37
2019-02-22T07:20:52.748Z,144.20
2019-02-22T07:21:59.893Z,137.17
2019-02-22T07:23:07.828Z,143.30
2019-02-22T07:24:14.471Z,135.50
2019-02-22T07:25:21.192Z,132.93
2019-02-22T07:26:27.959Z,134.47
2019-02-22T07:27:34.690Z,133.53
2019-02-22T07:28:41.811Z,133.53
2019-02-22T07:29:48.532Z,143.30
2019-02-22T07:30:55.702Z,133.27
2019-02-22T07:32:05.868Z,142.77
2019-02-22T07:33:10.800Z,128.80
2019-02-22T07:34:17.528Z,127.07
2019-02-22T07:35:24.512Z,124.37
2019-02-22T07:36:31.245Z,122.13
2019-02-22T07:37:37.946Z,104.93
2019-02-22T07:38:44.964Z,117.87
2019-02-22T07:39:51.714Z,116.00
2019-02-22T07:40:58.405Z,110.53
2019-02-22T07:42:05.165Z,101.07
2019-02-22T07:43:12.187Z,102.83
2019-02-22T07:44:18.872Z,100.57
2019-02-22T07:45:25.927Z,113.40
2019-02-22T07:46:33.224Z,102.77
2019-02-22T07:47:40.307Z,111.23
2019-02-22T07:48:47.700Z,107.17
2019-02-22T07:49:54.409Z,120.40
2019-02-22T07:51:01.432Z,102.87
2019-02-22T07:52:08.120Z,105.43
2019-02-22T07:53:14.920Z,118.10
2019-02-22T07:54:21.827Z,110.47
2019-02-22T07:55:28.520Z,109.20
2019-02-22T07:56:35.257Z,116.40
2019-02-22T07:57:42.241Z,115.83
2019-02-22T07:58:49.309Z,110.87
2019-02-22T07:59:56.407Z,106.93
2019-02-22T08:01:03.192Z,109.43
2019-02-22T08:02:09.842Z,111.50
2019-02-22T08:03:16.605Z,123.33
2019-02-22T08:04:23.616Z,102.53
2019-02-22T08:05:30.995Z,103.13
2019-02-22T08:06:38.085Z,103.67
2019-02-22T08:07:45.174Z,96.70
2019-02-22T08:08:52.264Z,90.53
2019-02-22T08:09:58.936Z,95.80
2019-02-22T08:11:05.916Z,89.20
2019-02-22T08:12:12.635Z,93.43
2019-02-22T08:13:20.650Z,87.17
2019-02-22T08:14:27.364Z,77.07
2019-02-22T08:15:35.415Z,77.83
2019-02-22T08:16:42.370Z,85.67
2019-02-22T08:17:49.308Z,87.60
2019-02-22T08:19:01.477Z,92.43
2019-02-22T08:20:04.916Z,78.83
2019-02-22T08:21:11.607Z,102.57
2019-02-22T08:22:20.636Z,84.63
2019-02-22T08:23:27.045Z,84.97
2019-02-22T08:24:34.113Z,83.50
2019-02-22T08:25:41.155Z,85.53
2019-02-22T08:26:47.833Z,81.80
2019-02-22T08:27:54.605Z,77.80
2019-02-22T08:29:01.715Z,78.07
2019-02-22T08:30:09.834Z,83.23
2019-02-22T08:31:17.195Z,86.13
2019-02-22T08:32:24.137Z,72.30
2019-02-22T08:33:30.823Z,89.77
2019-02-22T08:34:39.604Z,78.67
2019-02-22T08:35:46.272Z,69.33
2019-02-22T08:36:53.380Z,84.90
2019-02-22T08:38:00.348Z,84.63
2019-02-22T08:39:07.636Z,83.87
2019-02-22T08:40:14.374Z,78.30
2019-02-22T08:41:21.479Z,77.30
2019-02-22T08:42:28.148Z,73.23
2019-02-22T08:43:34.854Z,70.73
2019-02-22T08:44:41.981Z,75.80
2019-02-22T08:45:49.049Z,72.73
2019-02-22T08:46:55.807Z,73.13
2019-02-22T08:48:02.818Z,69.03
2019-02-22T08:49:09.576Z,73.30
2019-02-22T08:50:16.283Z,71.30
2019-02-22T08:51:23.367Z,75.73
2019-02-22T08:52:31.376Z,70.00
2019-02-22T08:53:38.643Z,63.27
2019-02-22T08:54:47.275Z,70.70
2019-02-22T08:55:53.762Z,70.30
2019-02-22T08:57:00.918Z,69.67
2019-02-22T08:58:08.029Z,73.63
2019-02-22T08:59:15.032Z,57.73
2019-02-22T09:00:22.116Z,60.20
2019-02-22T09:01:29.217Z,67.77
2019-02-22T09:02:35.951Z,61.40
2019-02-22T09:03:50.633Z,64.43
2019-02-22T09:04:51.363Z,77.37
2019-02-22T09:05:58.150Z,70.17
2019-02-22T09:07:04.872Z,67.67
2019-02-22T09:08:11.891Z,61.70
2019-02-22T09:09:18.548Z,63.17
2019-02-22T09:10:25.248Z,61.77
2019-02-22T09:11:32.590Z,62.80
2019-02-22T09:12:40.018Z,64.17
2019-02-22T09:13:47.186Z,68.40
2019-02-22T09:14:53.923Z,60.07
2019-02-22T09:16:00.671Z,59.73
2019-02-22T09:17:07.339Z,68.13
2019-02-22T09:18:14.016Z,70.80
2019-02-22T09:19:20.764Z,70.40
2019-02-22T09:20:28.123Z,60.70
2019-02-22T09:21:34.864Z,78.47
2019-02-22T09:22:41.574Z,73.23
2019-02-22T09:23:48.553Z,61.40
2019-02-22T09:24:55.283Z,58.40
2019-02-22T09:26:02.348Z,78.53
2019-02-22T09:27:09.182Z,69.10
2019-02-22T09:28:16.199Z,70.70
2019-02-22T09:29:22.926Z,79.93
2019-02-22T09:30:29.945Z,73.80
2019-02-22T09:31:36.958Z,67.50
2019-02-22T09:32:43.643Z,73.47
2019-02-22T09:33:50.381Z,68.23
2019-02-22T09:34:57.437Z,71.60
2019-02-22T09:36:04.148Z,64.13
2019-02-22T09:37:11.281Z,75.97
2019-02-22T09:38:18.128Z,68.20
2019-02-22T09:39:25.240Z,67.77
2019-02-22T09:40:31.955Z,59.37
2019-02-22T09:41:38.629Z,62.23
2019-02-22T09:42:45.308Z,59.30
2019-02-22T09:43:55.596Z,57.77
2019-02-22T09:45:01.100Z,63.30
2019-02-22T09:46:08.201Z,60.10
2019-02-22T09:47:15.295Z,60.47
2019-02-22T09:48:22.026Z,62.77
2019-02-22T09:49:29.146Z,63.87
2019-02-22T09:50:36.241Z,60.87
2019-02-22T09:51:42.972Z,57.13
2019-02-22T09:52:49.982Z,60.87
2019-02-22T09:53:56.810Z,64.50
2019-02-22T09:55:03.822Z,59.70
2019-02-22T09:56:10.561Z,60.33
2019-02-22T09:57:17.539Z,58.63
2019-02-22T09:58:24.668Z,49.67
2019-02-22T09:59:31.747Z,53.37
2019-02-22T10:00:39.131Z,51.23
2019-02-22T10:01:45.834Z,50.00
2019-02-22T10:02:52.541Z,51.37
2019-02-22T10:03:59.546Z,55.17
2019-02-22T10:05:06.805Z,56.43
2019-02-22T10:06:13.861Z,48.17
2019-02-22T10:07:20.871Z,50.97
2019-02-22T10:08:27.664Z,47.50
2019-02-22T10:09:34.321Z,45.90
2019-02-22T10:10:41.033Z,46.97
2019-02-22T10:11:48.122Z,57.90
2019-02-22T10:12:55.124Z,54.10
2019-02-22T10:14:06.780Z,44.70
2019-02-22T10:15:10.647Z,48.97
2019-02-22T10:16:17.344Z,45.37
2019-02-22T10:17:24.393Z,45.50
2019-02-22T10:18:31.098Z,48.67
2019-02-22T10:19:38.104Z,42.07
2019-02-22T10:20:45.079Z,51.53
2019-02-22T10:21:51.808Z,48.27
2019-02-22T10:22:58.499Z,41.57
2019-02-22T10:24:05.217Z,43.60
2019-02-22T10:25:11.895Z,50.77
2019-02-22T10:26:21.412Z,39.10
2019-02-22T10:27:27.408Z,47.67
2019-02-22T10:28:34.089Z,44.30
2019-02-22T10:29:41.124Z,44.87
2019-02-22T10:30:48.170Z,45.10
2019-02-22T10:31:55.331Z,40.43
2019-02-22T10:33:02.464Z,45.80
2019-02-22T10:34:09.132Z,41.80
2019-02-22T10:35:15.822Z,35.57
2019-02-22T10:36:22.993Z,41.43
2019-02-22T10:37:29.669Z,32.20
2019-02-22T10:38:36.382Z,41.20
2019-02-22T10:39:43.101Z,37.30
2019-02-22T10:40:50.052Z,41.57
2019-02-22T10:41:57.142Z,40.70
2019-02-22T10:43:04.787Z,38.77
2019-02-22T10:44:17.705Z,40.27
2019-02-22T10:45:20.277Z,41.33
2019-02-22T10:46:27.368Z,37.80
2019-02-22T10:47:34.852Z,41.63
2019-02-22T10:48:41.592Z,40.30
2019-02-22T10:49:48.261Z,37.53
2019-02-22T10:50:55.120Z,40.60
2019-02-22T10:52:02.080Z,46.80
2019-02-22T10:53:08.835Z,46.47
2019-02-22T10:54:15.887Z,46.77
2019-02-22T10:55:23.155Z,37.50
2019-02-22T10:56:30.058Z,35.67
2019-02-22T10:57:36.854Z,38.43
2019-02-22T10:58:43.621Z,37.13
2019-02-22T10:59:51.093Z,36.80
2019-02-22T11:00:58.360Z,36.50
2019-02-22T11:02:05.114Z,39.20
2019-02-22T11:03:11.930Z,36.93
2019-02-22T11:04:18.996Z,32.60
2019-02-22T11:05:25.793Z,36.60
2019-02-22T11:06:32.441Z,35.50
2019-02-22T11:07:39.126Z,40.67
2019-02-22T11:08:47.019Z,28.87
2019-02-22T11:09:53.802Z,31.67
2019-02-22T11:11:00.551Z,33.67
2019-02-22T11:12:07.207Z,32.03
2019-02-22T11:13:13.896Z,29.40
2019-02-22T11:14:28.763Z,28.00
2019-02-22T11:15:29.460Z,30.87
2019-02-22T11:16:36.424Z,29.20
2019-02-22T11:17:43.164Z,35.00
2019-02-22T11:18:50.170Z,34.70
2019-02-22T11:19:56.951Z,33.00
2019-02-22T11:21:03.643Z,33.30
2019-02-22T11:22:10.321Z,37.17
2019-02-22T11:23:17.347Z,33.53
2019-02-22T11:24:24.059Z,28.77
2019-02-22T11:25:31.090Z,27.70
2019-02-22T11:26:37.769Z,31.47
2019-02-22T11:27:44.467Z,31.00
2019-02-22T11:28:51.176Z,33.67
2019-02-22T11:29:57.883Z,36.50
2019-02-22T11:31:04.646Z,31.10
2019-02-22T11:32:11.310Z,35.40
2019-02-22T11:33:18.003Z,34.97
2019-02-22T11:34:24.705Z,35.10
2019-02-22T11:35:31.381Z,32.50
2019-02-22T11:36:38.604Z,30.03
2019-02-22T11:37:45.769Z,29.67
2019-02-22T11:38:52.875Z,29.43
2019-02-22T11:39:59.840Z,29.00
2019-02-22T11:41:07.858Z,40.13
2019-02-22T11:42:14.678Z,27.30
2019-02-22T11:43:21.705Z,35.77
2019-02-22T11:44:39.616Z,31.90
2019-02-22T11:45:37.258Z,29.33
2019-02-22T11:46:44.385Z,29.20
2019-02-22T11:47:51.071Z,29.53
2019-02-22T11:48:57.728Z,26.63
2019-02-22T11:50:04.950Z,28.57
2019-02-22T11:51:11.636Z,32.20
2019-02-22T11:52:18.693Z,31.43
2019-02-22T11:53:25.375Z,28.30
2019-02-22T11:54:32.737Z,25.37
2019-02-22T11:55:39.445Z,33.67
2019-02-22T11:56:46.560Z,30.87
2019-02-22T11:57:53.633Z,26.90
2019-02-22T11:59:00.309Z,34.50
2019-02-22T12:00:11.371Z,32.77
2019-02-22T12:01:18.203Z,29.87
2019-02-22T12:02:24.919Z,31.57
2019-02-22T12:03:34.006Z,25.73
2019-02-22T12:04:40.415Z,31.80
2019-02-22T12:05:47.163Z,33.00
2019-02-22T12:06:54.213Z,30.20
2019-02-22T12:08:03.527Z,24.97
2019-02-22T12:09:09.706Z,29.67
2019-02-22T12:10:16.835Z,27.80
2019-02-22T12:11:24.182Z,26.97
2019-02-22T12:12:31.295Z,20.20
2019-02-22T12:13:38.301Z,24.87
2019-02-22T12:14:51.527Z,27.97
2019-02-22T12:15:53.440Z,27.73
2019-02-22T12:17:00.585Z,26.30
2019-02-22T12:18:07.452Z,23.53
2019-02-22T12:19:14.438Z,31.27
2019-02-22T12:20:21.510Z,30.80
2019-02-22T12:21:28.288Z,30.80
2019-02-22T12:22:35.324Z,41.97
2019-02-22T12:23:42.036Z,28.03
2019-02-22T12:24:48.722Z,32.97
2019-02-22T12:25:55.444Z,34.63
2019-02-22T12:27:02.443Z,31.17
2019-02-22T12:28:09.140Z,34.53
2019-02-22T12:29:16.047Z,30.33
2019-02-22T12:30:25.595Z,34.80
2019-02-22T12:31:31.626Z,33.10
2019-02-22T12:32:39.528Z,34.40
2019-02-22T12:33:46.942Z,37.77
2019-02-22T12:34:54.019Z,35.10
2019-02-22T12:36:01.020Z,37.80
2019-02-22T12:37:08.698Z,39.47
2019-02-22T12:38:15.550Z,40.57
2019-02-22T12:39:22.277Z,47.53
2019-02-22T12:40:28.927Z,43.70
2019-02-22T12:41:36.299Z,47.20
2019-02-22T12:42:43.329Z,71.93
2019-02-22T12:43:50.419Z,81.63
2019-02-22T12:45:02.910Z,67.73
2019-02-22T12:46:05.863Z,91.83
2019-02-22T12:47:12.834Z,88.67
2019-02-22T12:48:19.912Z,101.13
2019-02-22T12:49:27.085Z,102.70
2019-02-22T12:50:34.096Z,97.00
2019-02-22T12:51:40.776Z,99.63
2019-02-22T12:52:47.455Z,112.50
2019-02-22T12:53:54.475Z,102.57
2019-02-22T12:55:02.088Z,104.63
2019-02-22T12:56:08.804Z,98.03
2019-02-22T12:57:15.785Z,101.37
2019-02-22T12:58:22.826Z,99.03
2019-02-22T12:59:29.911Z,102.03
2019-02-22T13:00:37.147Z,103.90
2019-02-22T13:01:44.130Z,103.43
2019-02-22T13:03:01.282Z,112.77
2019-02-22T13:03:59.553Z,129.13
2019-02-22T13:05:06.960Z,135.03
2019-02-22T13:06:13.695Z,141.70
2019-02-22T13:07:20.773Z,136.00
2019-02-22T13:08:28.355Z,151.03
2019-02-22T13:09:36.871Z,167.07
2019-02-22T13:10:44.205Z,161.80
2019-02-22T13:11:51.386Z,195.43
2019-02-22T13:12:58.732Z,181.17
2019-02-22T13:14:05.520Z,203.70
2019-02-22T13:15:14.343Z,185.37
2019-02-22T13:16:21.814Z,180.20
2019-02-22T13:17:31.014Z,179.43
2019-02-22T13:18:37.240Z,187.13
2019-02-22T13:19:43.970Z,181.17
2019-02-22T13:20:53.183Z,145.63
2019-02-22T13:21:59.102Z,156.30
2019-02-22T13:23:05.801Z,125.57
2019-02-22T13:24:13.027Z,136.87
2019-02-22T13:25:20.172Z,96.33
2019-02-22T13:26:26.874Z,112.60
2019-02-22T13:27:33.549Z,98.90
2019-02-22T13:28:40.234Z,93.10
2019-02-22T13:29:46.938Z,116.87
2019-02-22T13:30:53.696Z,101.93
2019-02-22T13:32:00.664Z,103.90
2019-02-22T13:33:07.365Z,95.30
2019-02-22T13:34:14.717Z,112.77
2019-02-22T13:35:21.467Z,108.23
2019-02-22T13:36:28.578Z,85.50
2019-02-22T13:37:35.646Z,80.83
2019-02-22T13:38:42.761Z,62.00
2019-02-22T13:39:49.795Z,57.03
2019-02-22T13:40:56.838Z,53.27
2019-02-22T13:42:03.921Z,43.00
2019-02-22T13:43:10.900Z,39.97
2019-02-22T13:44:17.908Z,35.40
2019-02-22T13:45:26.961Z,41.37
2019-02-22T13:46:33.659Z,38.83
2019-02-22T13:47:40.325Z,35.93
2019-02-22T13:48:47.354Z,38.10
2019-02-22T13:49:54.733Z,33.47
2019-02-22T13:51:01.480Z,38.70
2019-02-22T13:52:08.271Z,25.50
2019-02-22T13:53:15.738Z,24.50
2019-02-22T13:54:22.654Z,25.73
2019-02-22T13:55:29.362Z,28.17
2019-02-22T13:56:36.382Z,33.90
2019-02-22T13:57:43.091Z,33.10
2019-02-22T13:58:49.800Z,24.80
2019-02-22T13:59:56.517Z,30.77
2019-02-22T14:01:03.553Z,28.67
2019-02-22T14:02:10.251Z,31.77
2019-02-22T14:03:16.976Z,33.70
2019-02-22T14:04:23.690Z,33.07
2019-02-22T14:05:30.798Z,32.30
2019-02-22T14:06:37.520Z,33.73
2019-02-22T14:07:52.288Z,34.53
2019-02-22T14:08:59.000Z,32.37
2019-02-22T14:10:06.011Z,31.30
2019-02-22T14:11:13.028Z,33.23
2019-02-22T14:12:19.735Z,34.03
2019-02-22T14:13:26.802Z,29.50
2019-02-22T14:14:33.435Z,29.10
2019-02-22T14:15:40.137Z,30.17
2019-02-22T14:16:47.070Z,30.43
2019-02-22T14:17:54.359Z,33.67
2019-02-22T14:19:01.091Z,29.07
2019-02-22T14:20:08.844Z,31.70
2019-02-22T14:21:15.513Z,34.20
2019-02-22T14:22:22.973Z,30.00
2019-02-22T14:23:30.054Z,24.80
2019-02-22T14:24:36.791Z,33.40
2019-02-22T14:25:44.105Z,29.27
2019-02-22T14:26:51.126Z,32.57
2019-02-22T14:27:58.494Z,25.73
2019-02-22T14:29:05.217Z,34.20
2019-02-22T14:30:12.666Z,28.73
2019-02-22T14:31:19.378Z,31.10
2019-02-22T14:32:26.490Z,35.83
2019-02-22T14:33:34.898Z,35.43
2019-02-22T14:34:41.633Z,28.90
2019-02-22T14:35:48.669Z,29.50
2019-02-22T14:36:55.444Z,31.70
2019-02-22T14:38:02.269Z,37.57
2019-02-22T14:39:09.821Z,30.73
2019-02-22T14:40:16.832Z,35.33
2019-02-22T14:41:23.966Z,34.83